Etusivu
METAR-TAF:

METAR-TAF

Lentoasemat :

Haugesund, Norja

Leveyspiiri: 59-21N, Pituuspiiri: 005-13E, korkeus merenpinnasta: 2 m

Tämänhetkinen sää

Tämä raportti tehtiin 30 minuuttia sitten, kello 17.50 UTC
Tuuli 7 kn idästä/kaakosta
Lämpötila 3°C
Kosteus 93%
Ilmanpaine 1035 hPa
Näkyvyys: 9000 m
Muutamia pilviä 400 ft:n korkeudessa

METAR: ENHD 191750Z 11007KT 9000 FEW004 03/02 Q1035

Aika: 19:20 (18:20 UTC)

Sääennuste

Tämä raportti tehtiin 1 tunti ja 20 minuuttia sitten, kello 17.00 UTC
Ennuste voimassa 19. päivästä klo 18 UTC - 19. päivään klo 21 UTC
Tuuli 5 kn idästä/kaakosta
Näkyvyys: 7000 m
Hajonneita pilviä 500 ft:n korkeudessa
Ajoittain
19. päivästä klo 18 UTC - 19. päivään klo 21 UTC
Näkyvyys: 0200 m
200 ft:n korkeudessa
sumua
Todennäköisyys 30%
19. päivästä klo 18 UTC - 19. päivään klo 21 UTC
Hajanaisia pilviä 500 ft:n korkeudessa

TAF: ENHD 191700Z 1918/1921 11005KT 7000 BKN005 TEMPO 1918/1921 0200 FG VV002 PROB30 1918/1921 SCT005

Säähavainnot ja -ennusteet yli 4000 lentoasemalta (METAR- ja TAF-raportit).

Käytössä olevat sääasemat on merkitty karttaan keltaisilla ja punaisilla pisteillä.

Aseta hiiri pisteen päälle nähdäksesi sääaseman nimen.

Klikkaa sitten nähdäksesi säähavainnot ja -ennusteet.

Kartan vaihtaminen: klikkaa mustalla rastilla varustettuja vihreitä pisteitä, niin voit zoomata sisään; viivalla varustettua vihreää pistettä, niin voit zoomata ulos tai vihreitä nuolia, niin pääset viereisille kartoille.


METAR-TAF: